sensor_id;sensor_type;location;lat;lon;timestamp;P1;durP1;ratioP1;P2;durP2;ratioP2
72358;SDS011;60317;48.880;-0.862;2023-05-07T00:00:34;1.13;;;0.80;;
72358;SDS011;60317;48.880;-0.862;2023-05-07T00:03:01;1.10;;;0.60;;
72358;SDS011;60317;48.880;-0.862;2023-05-07T00:05:27;1.30;;;0.70;;
72358;SDS011;60317;48.880;-0.862;2023-05-07T00:07:54;1.15;;;0.68;;
72358;SDS011;60317;48.880;-0.862;2023-05-07T00:10:22;0.75;;;0.60;;
72358;SDS011;60317;48.880;-0.862;2023-05-07T00:12:49;1.77;;;0.75;;
72358;SDS011;60317;48.880;-0.862;2023-05-07T00:15:17;1.40;;;0.68;;
72358;SDS011;60317;48.880;-0.862;2023-05-07T00:17:43;1.60;;;0.70;;
72358;SDS011;60317;48.880;-0.862;2023-05-07T00:20:10;1.33;;;0.70;;
72358;SDS011;60317;48.880;-0.862;2023-05-07T00:22:37;1.45;;;0.73;;
72358;SDS011;60317;48.880;-0.862;2023-05-07T00:25:04;1.27;;;0.77;;
72358;SDS011;60317;48.880;-0.862;2023-05-07T00:27:31;3.30;;;0.80;;
72358;SDS011;60317;48.880;-0.862;2023-05-07T00:29:57;1.30;;;0.80;;
72358;SDS011;60317;48.880;-0.862;2023-05-07T00:32:25;1.33;;;0.70;;
72358;SDS011;60317;48.880;-0.862;2023-05-07T00:34:52;1.45;;;0.57;;
72358;SDS011;60317;48.880;-0.862;2023-05-07T00:37:18;1.02;;;0.50;;
72358;SDS011;60317;48.880;-0.862;2023-05-07T00:39:45;1.42;;;0.73;;
72358;SDS011;60317;48.880;-0.862;2023-05-07T00:42:11;0.80;;;0.50;;
72358;SDS011;60317;48.880;-0.862;2023-05-07T00:44:38;2.85;;;0.60;;
72358;SDS011;60317;48.880;-0.862;2023-05-07T00:47:04;1.50;;;0.70;;
72358;SDS011;60317;48.880;-0.862;2023-05-07T00:49:35;0.80;;;0.63;;
72358;SDS011;60317;48.880;-0.862;2023-05-07T00:54:32;1.05;;;0.57;;
72358;SDS011;60317;48.880;-0.862;2023-05-07T00:56:59;0.50;;;0.50;;
72358;SDS011;60317;48.880;-0.862;2023-05-07T00:59:26;1.05;;;0.80;;
72358;SDS011;60317;48.880;-0.862;2023-05-07T01:01:53;2.40;;;0.70;;
72358;SDS011;60317;48.880;-0.862;2023-05-07T01:04:20;0.60;;;0.60;;
72358;SDS011;60317;48.880;-0.862;2023-05-07T01:06:49;1.02;;;0.70;;
72358;SDS011;60317;48.880;-0.862;2023-05-07T01:09:18;1.13;;;0.70;;
72358;SDS011;60317;48.880;-0.862;2023-05-07T01:11:45;0.73;;;0.60;;
72358;SDS011;60317;48.880;-0.862;2023-05-07T01:14:13;1.20;;;0.60;;
72358;SDS011;60317;48.880;-0.862;2023-05-07T01:16:39;0.90;;;0.55;;
72358;SDS011;60317;48.880;-0.862;2023-05-07T01:19:06;1.38;;;0.55;;
72358;SDS011;60317;48.880;-0.862;2023-05-07T01:21:34;1.25;;;0.60;;
72358;SDS011;60317;48.880;-0.862;2023-05-07T01:24:05;1.10;;;0.60;;
72358;SDS011;60317;48.880;-0.862;2023-05-07T01:26:32;1.75;;;0.73;;
72358;SDS011;60317;48.880;-0.862;2023-05-07T01:28:58;0.80;;;0.50;;
72358;SDS011;60317;48.880;-0.862;2023-05-07T01:31:25;0.60;;;0.60;;
72358;SDS011;60317;48.880;-0.862;2023-05-07T01:33:51;0.77;;;0.50;;
72358;SDS011;60317;48.880;-0.862;2023-05-07T01:36:20;0.80;;;0.60;;
72358;SDS011;60317;48.880;-0.862;2023-05-07T01:38:48;1.00;;;0.60;;
72358;SDS011;60317;48.880;-0.862;2023-05-07T01:41:16;1.15;;;0.85;;
72358;SDS011;60317;48.880;-0.862;2023-05-07T01:43:43;0.80;;;0.80;;
72358;SDS011;60317;48.880;-0.862;2023-05-07T01:46:10;1.40;;;0.70;;
72358;SDS011;60317;48.880;-0.862;2023-05-07T01:48:38;1.00;;;0.60;;
72358;SDS011;60317;48.880;-0.862;2023-05-07T01:51:05;0.47;;;0.45;;
72358;SDS011;60317;48.880;-0.862;2023-05-07T01:53:35;1.83;;;0.77;;
72358;SDS011;60317;48.880;-0.862;2023-05-07T01:56:02;1.20;;;0.77;;
72358;SDS011;60317;48.880;-0.862;2023-05-07T01:58:30;1.13;;;0.82;;
72358;SDS011;60317;48.880;-0.862;2023-05-07T02:00:56;1.02;;;0.65;;
72358;SDS011;60317;48.880;-0.862;2023-05-07T02:03:23;1.42;;;0.70;;
72358;SDS011;60317;48.880;-0.862;2023-05-07T02:05:49;0.50;;;0.50;;
72358;SDS011;60317;48.880;-0.862;2023-05-07T02:08:16;1.15;;;0.60;;
72358;SDS011;60317;48.880;-0.862;2023-05-07T02:10:42;1.50;;;0.73;;
72358;SDS011;60317;48.880;-0.862;2023-05-07T02:13:09;1.10;;;0.70;;
72358;SDS011;60317;48.880;-0.862;2023-05-07T02:15:37;0.95;;;0.50;;
72358;SDS011;60317;48.880;-0.862;2023-05-07T02:18:04;1.33;;;0.68;;
72358;SDS011;60317;48.880;-0.862;2023-05-07T02:20:31;0.60;;;0.60;;
72358;SDS011;60317;48.880;-0.862;2023-05-07T02:22:58;0.80;;;0.50;;
72358;SDS011;60317;48.880;-0.862;2023-05-07T02:25:25;1.60;;;0.80;;
72358;SDS011;60317;48.880;-0.862;2023-05-07T02:27:51;0.68;;;0.60;;
72358;SDS011;60317;48.880;-0.862;2023-05-07T02:30:18;0.75;;;0.70;;
72358;SDS011;60317;48.880;-0.862;2023-05-07T02:32:47;1.55;;;0.70;;
72358;SDS011;60317;48.880;-0.862;2023-05-07T02:35:13;1.08;;;0.63;;
72358;SDS011;60317;48.880;-0.862;2023-05-07T02:37:40;1.67;;;1.08;;
72358;SDS011;60317;48.880;-0.862;2023-05-07T02:40:07;0.45;;;0.45;;
72358;SDS011;60317;48.880;-0.862;2023-05-07T02:42:35;0.95;;;0.57;;
72358;SDS011;60317;48.880;-0.862;2023-05-07T02:45:01;0.93;;;0.70;;
72358;SDS011;60317;48.880;-0.862;2023-05-07T02:47:28;2.58;;;0.82;;
72358;SDS011;60317;48.880;-0.862;2023-05-07T02:49:56;0.98;;;0.73;;
72358;SDS011;60317;48.880;-0.862;2023-05-07T02:52:22;0.77;;;0.55;;
72358;SDS011;60317;48.880;-0.862;2023-05-07T02:54:49;0.85;;;0.40;;
72358;SDS011;60317;48.880;-0.862;2023-05-07T02:57:15;1.00;;;0.70;;
72358;SDS011;60317;48.880;-0.862;2023-05-07T02:59:42;1.15;;;0.80;;
72358;SDS011;60317;48.880;-0.862;2023-05-07T03:02:09;1.30;;;0.60;;
72358;SDS011;60317;48.880;-0.862;2023-05-07T03:04:35;1.02;;;0.60;;
72358;SDS011;60317;48.880;-0.862;2023-05-07T03:07:03;0.73;;;0.50;;
72358;SDS011;60317;48.880;-0.862;2023-05-07T03:09:30;1.10;;;0.60;;
72358;SDS011;60317;48.880;-0.862;2023-05-07T03:11:56;1.85;;;0.73;;
72358;SDS011;60317;48.880;-0.862;2023-05-07T03:14:23;0.70;;;0.68;;
72358;SDS011;60317;48.880;-0.862;2023-05-07T03:16:49;1.50;;;0.73;;
72358;SDS011;60317;48.880;-0.862;2023-05-07T03:19:16;0.88;;;0.57;;
72358;SDS011;60317;48.880;-0.862;2023-05-07T03:21:42;1.65;;;0.73;;
72358;SDS011;60317;48.880;-0.862;2023-05-07T03:24:10;0.85;;;0.63;;
72358;SDS011;60317;48.880;-0.862;2023-05-07T03:26:37;0.50;;;0.43;;
72358;SDS011;60317;48.880;-0.862;2023-05-07T03:29:03;0.73;;;0.52;;
72358;SDS011;60317;48.880;-0.862;2023-05-07T03:31:30;1.83;;;1.00;;
72358;SDS011;60317;48.880;-0.862;2023-05-07T03:33:57;0.88;;;0.70;;
72358;SDS011;60317;48.880;-0.862;2023-05-07T03:36:23;0.95;;;0.68;;
72358;SDS011;60317;48.880;-0.862;2023-05-07T03:38:50;0.90;;;0.70;;
72358;SDS011;60317;48.880;-0.862;2023-05-07T03:41:18;0.60;;;0.60;;
72358;SDS011;60317;48.880;-0.862;2023-05-07T03:43:44;0.98;;;0.55;;
72358;SDS011;60317;48.880;-0.862;2023-05-07T03:46:11;1.15;;;0.65;;
72358;SDS011;60317;48.880;-0.862;2023-05-07T03:48:37;1.27;;;0.80;;
72358;SDS011;60317;48.880;-0.862;2023-05-07T03:51:04;1.50;;;0.70;;
72358;SDS011;60317;48.880;-0.862;2023-05-07T03:53:30;1.40;;;0.80;;
72358;SDS011;60317;48.880;-0.862;2023-05-07T03:55:57;1.25;;;0.80;;
72358;SDS011;60317;48.880;-0.862;2023-05-07T03:58:25;0.70;;;0.70;;
72358;SDS011;60317;48.880;-0.862;2023-05-07T04:00:51;1.52;;;0.80;;
72358;SDS011;60317;48.880;-0.862;2023-05-07T04:03:18;1.00;;;0.90;;
72358;SDS011;60317;48.880;-0.862;2023-05-07T04:05:45;1.77;;;0.90;;
72358;SDS011;60317;48.880;-0.862;2023-05-07T04:08:11;0.77;;;0.65;;
72358;SDS011;60317;48.880;-0.862;2023-05-07T04:10:37;1.67;;;0.80;;
72358;SDS011;60317;48.880;-0.862;2023-05-07T04:13:04;0.73;;;0.60;;
72358;SDS011;60317;48.880;-0.862;2023-05-07T04:15:32;0.75;;;0.65;;
72358;SDS011;60317;48.880;-0.862;2023-05-07T04:17:58;0.93;;;0.70;;
72358;SDS011;60317;48.880;-0.862;2023-05-07T04:20:25;1.15;;;0.80;;
72358;SDS011;60317;48.880;-0.862;2023-05-07T04:22:52;1.25;;;0.60;;
72358;SDS011;60317;48.880;-0.862;2023-05-07T04:25:18;1.27;;;0.80;;
72358;SDS011;60317;48.880;-0.862;2023-05-07T04:27:45;0.65;;;0.52;;
72358;SDS011;60317;48.880;-0.862;2023-05-07T04:30:12;0.85;;;0.68;;
72358;SDS011;60317;48.880;-0.862;2023-05-07T04:32:41;0.80;;;0.70;;
72358;SDS011;60317;48.880;-0.862;2023-05-07T04:35:07;0.82;;;0.40;;
72358;SDS011;60317;48.880;-0.862;2023-05-07T04:37:34;1.27;;;0.60;;
72358;SDS011;60317;48.880;-0.862;2023-05-07T04:40:01;1.33;;;0.70;;
72358;SDS011;60317;48.880;-0.862;2023-05-07T04:42:27;0.68;;;0.63;;
72358;SDS011;60317;48.880;-0.862;2023-05-07T04:44:53;0.90;;;0.68;;
72358;SDS011;60317;48.880;-0.862;2023-05-07T04:47:20;0.52;;;0.50;;
72358;SDS011;60317;48.880;-0.862;2023-05-07T04:49:48;1.25;;;0.73;;
72358;SDS011;60317;48.880;-0.862;2023-05-07T04:52:14;0.80;;;0.80;;
72358;SDS011;60317;48.880;-0.862;2023-05-07T04:54:41;1.13;;;0.70;;
72358;SDS011;60317;48.880;-0.862;2023-05-07T04:57:07;0.75;;;0.75;;
72358;SDS011;60317;48.880;-0.862;2023-05-07T04:59:34;1.70;;;0.80;;
72358;SDS011;60317;48.880;-0.862;2023-05-07T05:02:00;0.60;;;0.57;;
72358;SDS011;60317;48.880;-0.862;2023-05-07T05:04:27;1.00;;;0.60;;
72358;SDS011;60317;48.880;-0.862;2023-05-07T05:06:55;0.70;;;0.70;;
72358;SDS011;60317;48.880;-0.862;2023-05-07T05:09:21;1.05;;;0.70;;
72358;SDS011;60317;48.880;-0.862;2023-05-07T05:11:48;2.22;;;0.93;;
72358;SDS011;60317;48.880;-0.862;2023-05-07T05:14:14;1.58;;;0.90;;
72358;SDS011;60317;48.880;-0.862;2023-05-07T05:16:41;0.68;;;0.68;;
72358;SDS011;60317;48.880;-0.862;2023-05-07T05:19:07;1.20;;;0.70;;
72358;SDS011;60317;48.880;-0.862;2023-05-07T05:21:34;0.47;;;0.47;;
72358;SDS011;60317;48.880;-0.862;2023-05-07T05:24:01;1.02;;;0.50;;
72358;SDS011;60317;48.880;-0.862;2023-05-07T05:26:28;0.60;;;0.60;;
72358;SDS011;60317;48.880;-0.862;2023-05-07T05:28:55;0.90;;;0.70;;
72358;SDS011;60317;48.880;-0.862;2023-05-07T05:31:21;1.40;;;0.70;;
72358;SDS011;60317;48.880;-0.862;2023-05-07T05:33:48;0.70;;;0.70;;
72358;SDS011;60317;48.880;-0.862;2023-05-07T05:36:14;0.65;;;0.65;;
72358;SDS011;60317;48.880;-0.862;2023-05-07T05:38:41;0.88;;;0.80;;
72358;SDS011;60317;48.880;-0.862;2023-05-07T05:41:08;0.50;;;0.50;;
72358;SDS011;60317;48.880;-0.862;2023-05-07T05:43:35;1.23;;;0.73;;
72358;SDS011;60317;48.880;-0.862;2023-05-07T05:46:02;1.67;;;0.80;;
72358;SDS011;60317;48.880;-0.862;2023-05-07T05:48:28;1.90;;;0.70;;
72358;SDS011;60317;48.880;-0.862;2023-05-07T05:50:55;0.30;;;0.30;;
72358;SDS011;60317;48.880;-0.862;2023-05-07T05:53:21;1.98;;;0.60;;
72358;SDS011;60317;48.880;-0.862;2023-05-07T05:55:48;0.60;;;0.60;;
72358;SDS011;60317;48.880;-0.862;2023-05-07T05:58:16;0.75;;;0.52;;
72358;SDS011;60317;48.880;-0.862;2023-05-07T06:00:42;0.95;;;0.70;;
72358;SDS011;60317;48.880;-0.862;2023-05-07T06:03:09;0.85;;;0.65;;
72358;SDS011;60317;48.880;-0.862;2023-05-07T06:05:36;0.55;;;0.55;;
72358;SDS011;60317;48.880;-0.862;2023-05-07T06:08:03;1.05;;;0.65;;
72358;SDS011;60317;48.880;-0.862;2023-05-07T06:10:29;0.65;;;0.50;;
72358;SDS011;60317;48.880;-0.862;2023-05-07T06:12:56;0.93;;;0.50;;
72358;SDS011;60317;48.880;-0.862;2023-05-07T06:15:24;0.60;;;0.60;;
72358;SDS011;60317;48.880;-0.862;2023-05-07T06:17:50;0.47;;;0.32;;
72358;SDS011;60317;48.880;-0.862;2023-05-07T06:20:17;0.28;;;0.28;;
72358;SDS011;60317;48.880;-0.862;2023-05-07T06:22:43;0.90;;;0.57;;
72358;SDS011;60317;48.880;-0.862;2023-05-07T06:25:10;0.73;;;0.50;;
72358;SDS011;60317;48.880;-0.862;2023-05-07T06:27:36;0.47;;;0.43;;
72358;SDS011;60317;48.880;-0.862;2023-05-07T06:30:03;0.50;;;0.50;;
72358;SDS011;60317;48.880;-0.862;2023-05-07T06:32:31;0.55;;;0.52;;
72358;SDS011;60317;48.880;-0.862;2023-05-07T06:34:58;0.40;;;0.35;;
72358;SDS011;60317;48.880;-0.862;2023-05-07T06:37:25;0.40;;;0.30;;
72358;SDS011;60317;48.880;-0.862;2023-05-07T06:39:51;0.80;;;0.40;;
72358;SDS011;60317;48.880;-0.862;2023-05-07T06:42:18;0.60;;;0.50;;
72358;SDS011;60317;48.880;-0.862;2023-05-07T06:44:44;0.38;;;0.30;;
72358;SDS011;60317;48.880;-0.862;2023-05-07T06:47:10;0.55;;;0.40;;
72358;SDS011;60317;48.880;-0.862;2023-05-07T06:49:42;0.60;;;0.50;;
72358;SDS011;60317;48.880;-0.862;2023-05-07T06:52:08;0.40;;;0.40;;
72358;SDS011;60317;48.880;-0.862;2023-05-07T06:54:35;1.17;;;0.45;;
72358;SDS011;60317;48.880;-0.862;2023-05-07T06:57:01;0.30;;;0.22;;
72358;SDS011;60317;48.880;-0.862;2023-05-07T06:59:28;0.50;;;0.40;;
72358;SDS011;60317;48.880;-0.862;2023-05-07T07:01:54;1.08;;;0.60;;
72358;SDS011;60317;48.880;-0.862;2023-05-07T07:04:21;0.32;;;0.32;;
72358;SDS011;60317;48.880;-0.862;2023-05-07T07:06:49;0.57;;;0.43;;
72358;SDS011;60317;48.880;-0.862;2023-05-07T07:09:15;0.50;;;0.30;;
72358;SDS011;60317;48.880;-0.862;2023-05-07T07:11:42;0.57;;;0.40;;
72358;SDS011;60317;48.880;-0.862;2023-05-07T07:14:08;0.68;;;0.65;;
72358;SDS011;60317;48.880;-0.862;2023-05-07T07:16:35;0.60;;;0.40;;
72358;SDS011;60317;48.880;-0.862;2023-05-07T07:19:01;0.60;;;0.40;;
72358;SDS011;60317;48.880;-0.862;2023-05-07T07:21:28;0.32;;;0.32;;
72358;SDS011;60317;48.880;-0.862;2023-05-07T07:23:56;0.65;;;0.50;;
72358;SDS011;60317;48.880;-0.862;2023-05-07T07:26:22;0.45;;;0.45;;
72358;SDS011;60317;48.880;-0.862;2023-05-07T07:28:48;0.22;;;0.22;;
72358;SDS011;60317;48.880;-0.862;2023-05-07T07:31:15;0.50;;;0.40;;
72358;SDS011;60317;48.880;-0.862;2023-05-07T07:33:41;0.98;;;0.60;;
72358;SDS011;60317;48.880;-0.862;2023-05-07T07:36:09;0.55;;;0.45;;
72358;SDS011;60317;48.880;-0.862;2023-05-07T07:38:35;0.75;;;0.63;;
72358;SDS011;60317;48.880;-0.862;2023-05-07T07:41:04;0.70;;;0.50;;
72358;SDS011;60317;48.880;-0.862;2023-05-07T07:43:30;0.43;;;0.30;;
72358;SDS011;60317;48.880;-0.862;2023-05-07T07:45:57;0.35;;;0.30;;
72358;SDS011;60317;48.880;-0.862;2023-05-07T07:48:23;1.25;;;0.50;;
72358;SDS011;60317;48.880;-0.862;2023-05-07T07:50:50;0.68;;;0.50;;
72358;SDS011;60317;48.880;-0.862;2023-05-07T07:53:16;0.68;;;0.40;;
72358;SDS011;60317;48.880;-0.862;2023-05-07T07:55:43;0.88;;;0.60;;
72358;SDS011;60317;48.880;-0.862;2023-05-07T07:58:11;0.30;;;0.30;;
72358;SDS011;60317;48.880;-0.862;2023-05-07T08:00:37;0.57;;;0.55;;
72358;SDS011;60317;48.880;-0.862;2023-05-07T08:03:04;0.32;;;0.30;;
72358;SDS011;60317;48.880;-0.862;2023-05-07T08:05:31;0.80;;;0.40;;
72358;SDS011;60317;48.880;-0.862;2023-05-07T08:07:57;0.68;;;0.47;;
72358;SDS011;60317;48.880;-0.862;2023-05-07T08:10:23;0.47;;;0.43;;
72358;SDS011;60317;48.880;-0.862;2023-05-07T08:12:50;0.20;;;0.20;;
72358;SDS011;60317;48.880;-0.862;2023-05-07T08:15:18;0.30;;;0.30;;
72358;SDS011;60317;48.880;-0.862;2023-05-07T08:17:45;0.38;;;0.32;;
72358;SDS011;60317;48.880;-0.862;2023-05-07T08:20:12;0.40;;;0.40;;
72358;SDS011;60317;48.880;-0.862;2023-05-07T08:22:38;0.30;;;0.30;;
72358;SDS011;60317;48.880;-0.862;2023-05-07T08:25:05;0.40;;;0.40;;
72358;SDS011;60317;48.880;-0.862;2023-05-07T08:27:32;0.57;;;0.40;;
72358;SDS011;60317;48.880;-0.862;2023-05-07T08:29:58;0.30;;;0.30;;
72358;SDS011;60317;48.880;-0.862;2023-05-07T08:32:26;0.30;;;0.30;;
72358;SDS011;60317;48.880;-0.862;2023-05-07T08:34:52;0.10;;;0.10;;
72358;SDS011;60317;48.880;-0.862;2023-05-07T08:37:19;0.50;;;0.40;;
72358;SDS011;60317;48.880;-0.862;2023-05-07T08:39:46;0.20;;;0.20;;
72358;SDS011;60317;48.880;-0.862;2023-05-07T08:42:12;0.45;;;0.32;;
72358;SDS011;60317;48.880;-0.862;2023-05-07T08:44:42;0.30;;;0.30;;
72358;SDS011;60317;48.880;-0.862;2023-05-07T08:47:11;0.40;;;0.40;;
72358;SDS011;60317;48.880;-0.862;2023-05-07T08:49:39;0.20;;;0.20;;
72358;SDS011;60317;48.880;-0.862;2023-05-07T08:52:06;0.38;;;0.38;;
72358;SDS011;60317;48.880;-0.862;2023-05-07T08:54:36;0.38;;;0.38;;
72358;SDS011;60317;48.880;-0.862;2023-05-07T08:57:03;0.77;;;0.30;;
72358;SDS011;60317;48.880;-0.862;2023-05-07T08:59:30;0.30;;;0.20;;
72358;SDS011;60317;48.880;-0.862;2023-05-07T09:01:56;0.30;;;0.30;;
72358;SDS011;60317;48.880;-0.862;2023-05-07T09:04:23;0.30;;;0.30;;
72358;SDS011;60317;48.880;-0.862;2023-05-07T09:06:51;0.55;;;0.40;;
72358;SDS011;60317;48.880;-0.862;2023-05-07T09:09:17;0.30;;;0.30;;
72358;SDS011;60317;48.880;-0.862;2023-05-07T09:11:44;0.30;;;0.20;;
72358;SDS011;60317;48.880;-0.862;2023-05-07T09:14:10;0.57;;;0.40;;
72358;SDS011;60317;48.880;-0.862;2023-05-07T09:16:37;0.40;;;0.40;;
72358;SDS011;60317;48.880;-0.862;2023-05-07T09:19:03;0.30;;;0.30;;
72358;SDS011;60317;48.880;-0.862;2023-05-07T09:21:30;0.50;;;0.50;;
72358;SDS011;60317;48.880;-0.862;2023-05-07T09:23:58;0.32;;;0.32;;
72358;SDS011;60317;48.880;-0.862;2023-05-07T09:26:25;0.35;;;0.35;;
72358;SDS011;60317;48.880;-0.862;2023-05-07T09:28:51;0.60;;;0.50;;
72358;SDS011;60317;48.880;-0.862;2023-05-07T09:31:18;0.32;;;0.30;;
72358;SDS011;60317;48.880;-0.862;2023-05-07T09:33:47;0.57;;;0.45;;
72358;SDS011;60317;48.880;-0.862;2023-05-07T09:36:13;0.28;;;0.28;;
72358;SDS011;60317;48.880;-0.862;2023-05-07T09:38:40;0.40;;;0.40;;
72358;SDS011;60317;48.880;-0.862;2023-05-07T09:41:08;0.20;;;0.20;;
72358;SDS011;60317;48.880;-0.862;2023-05-07T09:43:37;0.40;;;0.35;;
72358;SDS011;60317;48.880;-0.862;2023-05-07T09:46:06;0.30;;;0.30;;
72358;SDS011;60317;48.880;-0.862;2023-05-07T09:48:35;0.32;;;0.32;;
72358;SDS011;60317;48.880;-0.862;2023-05-07T09:51:04;0.43;;;0.30;;
72358;SDS011;60317;48.880;-0.862;2023-05-07T09:53:37;0.43;;;0.30;;
72358;SDS011;60317;48.880;-0.862;2023-05-07T09:56:05;0.40;;;0.40;;
72358;SDS011;60317;48.880;-0.862;2023-05-07T09:58:34;0.40;;;0.40;;
72358;SDS011;60317;48.880;-0.862;2023-05-07T10:01:03;0.32;;;0.32;;
72358;SDS011;60317;48.880;-0.862;2023-05-07T10:03:30;1.00;;;0.38;;
72358;SDS011;60317;48.880;-0.862;2023-05-07T10:05:58;1.02;;;0.40;;
72358;SDS011;60317;48.880;-0.862;2023-05-07T10:08:26;0.25;;;0.20;;
72358;SDS011;60317;48.880;-0.862;2023-05-07T10:10:53;0.73;;;0.30;;
72358;SDS011;60317;48.880;-0.862;2023-05-07T10:13:21;0.30;;;0.30;;
72358;SDS011;60317;48.880;-0.862;2023-05-07T10:15:48;1.15;;;0.40;;
72358;SDS011;60317;48.880;-0.862;2023-05-07T10:18:16;0.20;;;0.20;;
72358;SDS011;60317;48.880;-0.862;2023-05-07T10:20:44;0.35;;;0.30;;
72358;SDS011;60317;48.880;-0.862;2023-05-07T10:23:13;0.35;;;0.30;;
72358;SDS011;60317;48.880;-0.862;2023-05-07T10:25:45;1.55;;;0.43;;
72358;SDS011;60317;48.880;-0.862;2023-05-07T10:28:13;0.55;;;0.40;;
72358;SDS011;60317;48.880;-0.862;2023-05-07T10:30:46;0.60;;;0.40;;
72358;SDS011;60317;48.880;-0.862;2023-05-07T10:33:23;0.70;;;0.40;;
72358;SDS011;60317;48.880;-0.862;2023-05-07T10:35:55;0.20;;;0.20;;
72358;SDS011;60317;48.880;-0.862;2023-05-07T10:38:23;0.57;;;0.40;;
72358;SDS011;60317;48.880;-0.862;2023-05-07T10:40:50;1.17;;;0.43;;
72358;SDS011;60317;48.880;-0.862;2023-05-07T10:43:17;0.30;;;0.30;;
72358;SDS011;60317;48.880;-0.862;2023-05-07T10:45:43;0.20;;;0.10;;
72358;SDS011;60317;48.880;-0.862;2023-05-07T10:48:31;0.70;;;0.30;;
72358;SDS011;60317;48.880;-0.862;2023-05-07T10:53:48;0.65;;;0.50;;
72358;SDS011;60317;48.880;-0.862;2023-05-07T10:56:24;0.40;;;0.40;;
72358;SDS011;60317;48.880;-0.862;2023-05-07T10:58:52;1.15;;;0.40;;
72358;SDS011;60317;48.880;-0.862;2023-05-07T11:04:14;0.40;;;0.40;;
72358;SDS011;60317;48.880;-0.862;2023-05-07T11:06:42;0.30;;;0.30;;
72358;SDS011;60317;48.880;-0.862;2023-05-07T11:15:12;0.40;;;0.30;;
72358;SDS011;60317;48.880;-0.862;2023-05-07T11:17:51;0.30;;;0.30;;
72358;SDS011;60317;48.880;-0.862;2023-05-07T11:20:20;0.30;;;0.30;;
72358;SDS011;60317;48.880;-0.862;2023-05-07T11:23:07;0.75;;;0.60;;
72358;SDS011;60317;48.880;-0.862;2023-05-07T11:25:33;0.70;;;0.35;;
72358;SDS011;60317;48.880;-0.862;2023-05-07T11:28:04;0.95;;;0.40;;
72358;SDS011;60317;48.880;-0.862;2023-05-07T11:30:32;1.00;;;0.70;;
72358;SDS011;60317;48.880;-0.862;2023-05-07T11:32:58;0.85;;;0.50;;
72358;SDS011;60317;48.880;-0.862;2023-05-07T11:35:26;0.40;;;0.30;;
72358;SDS011;60317;48.880;-0.862;2023-05-07T11:37:57;0.30;;;0.30;;
72358;SDS011;60317;48.880;-0.862;2023-05-07T11:40:26;0.82;;;0.50;;
72358;SDS011;60317;48.880;-0.862;2023-05-07T11:42:52;0.47;;;0.40;;
72358;SDS011;60317;48.880;-0.862;2023-05-07T11:45:22;0.50;;;0.50;;
72358;SDS011;60317;48.880;-0.862;2023-05-07T11:47:50;0.70;;;0.60;;
72358;SDS011;60317;48.880;-0.862;2023-05-07T11:50:16;0.93;;;0.68;;
72358;SDS011;60317;48.880;-0.862;2023-05-07T11:52:51;0.85;;;0.70;;
72358;SDS011;60317;48.880;-0.862;2023-05-07T11:55:17;0.40;;;0.40;;
72358;SDS011;60317;48.880;-0.862;2023-05-07T11:57:44;0.60;;;0.60;;
72358;SDS011;60317;48.880;-0.862;2023-05-07T12:00:12;0.65;;;0.60;;
72358;SDS011;60317;48.880;-0.862;2023-05-07T12:02:42;0.75;;;0.60;;
72358;SDS011;60317;48.880;-0.862;2023-05-07T12:05:09;0.55;;;0.55;;
72358;SDS011;60317;48.880;-0.862;2023-05-07T12:07:36;0.95;;;0.70;;
72358;SDS011;60317;48.880;-0.862;2023-05-07T12:10:05;1.08;;;0.73;;
72358;SDS011;60317;48.880;-0.862;2023-05-07T12:12:37;1.02;;;0.73;;
72358;SDS011;60317;48.880;-0.862;2023-05-07T12:15:04;0.93;;;0.60;;
72358;SDS011;60317;48.880;-0.862;2023-05-07T12:17:31;0.60;;;0.60;;
72358;SDS011;60317;48.880;-0.862;2023-05-07T12:19:58;0.70;;;0.50;;
72358;SDS011;60317;48.880;-0.862;2023-05-07T12:22:25;1.13;;;0.50;;
72358;SDS011;60317;48.880;-0.862;2023-05-07T12:24:56;0.30;;;0.30;;
72358;SDS011;60317;48.880;-0.862;2023-05-07T12:27:25;1.48;;;0.70;;
72358;SDS011;60317;48.880;-0.862;2023-05-07T12:29:52;1.00;;;0.63;;
72358;SDS011;60317;48.880;-0.862;2023-05-07T12:32:19;1.02;;;0.70;;
72358;SDS011;60317;48.880;-0.862;2023-05-07T12:34:47;0.57;;;0.55;;
72358;SDS011;60317;48.880;-0.862;2023-05-07T12:37:16;0.93;;;0.55;;
72358;SDS011;60317;48.880;-0.862;2023-05-07T12:39:44;1.15;;;0.60;;
72358;SDS011;60317;48.880;-0.862;2023-05-07T12:42:14;1.23;;;0.70;;
72358;SDS011;60317;48.880;-0.862;2023-05-07T12:44:44;0.65;;;0.65;;
72358;SDS011;60317;48.880;-0.862;2023-05-07T12:47:12;0.63;;;0.50;;
72358;SDS011;60317;48.880;-0.862;2023-05-07T12:49:38;1.08;;;0.50;;
72358;SDS011;60317;48.880;-0.862;2023-05-07T12:52:05;1.33;;;0.70;;
72358;SDS011;60317;48.880;-0.862;2023-05-07T12:54:32;0.98;;;0.60;;
72358;SDS011;60317;48.880;-0.862;2023-05-07T12:57:02;1.05;;;0.60;;
72358;SDS011;60317;48.880;-0.862;2023-05-07T12:59:31;0.93;;;0.70;;
72358;SDS011;60317;48.880;-0.862;2023-05-07T13:02:00;1.60;;;0.80;;
72358;SDS011;60317;48.880;-0.862;2023-05-07T13:04:26;1.25;;;0.80;;
72358;SDS011;60317;48.880;-0.862;2023-05-07T13:06:53;1.20;;;0.60;;
72358;SDS011;60317;48.880;-0.862;2023-05-07T13:09:19;0.65;;;0.65;;
72358;SDS011;60317;48.880;-0.862;2023-05-07T13:11:46;0.63;;;0.50;;
72358;SDS011;60317;48.880;-0.862;2023-05-07T13:14:12;0.65;;;0.50;;
72358;SDS011;60317;48.880;-0.862;2023-05-07T13:16:39;1.30;;;0.65;;
72358;SDS011;60317;48.880;-0.862;2023-05-07T13:19:06;2.72;;;0.80;;
72358;SDS011;60317;48.880;-0.862;2023-05-07T13:21:33;0.80;;;0.68;;
72358;SDS011;60317;48.880;-0.862;2023-05-07T13:23:59;0.85;;;0.55;;
72358;SDS011;60317;48.880;-0.862;2023-05-07T13:26:26;0.60;;;0.60;;
72358;SDS011;60317;48.880;-0.862;2023-05-07T13:28:53;0.40;;;0.40;;
72358;SDS011;60317;48.880;-0.862;2023-05-07T13:31:19;1.17;;;0.55;;
72358;SDS011;60317;48.880;-0.862;2023-05-07T13:33:46;1.08;;;0.80;;
72358;SDS011;60317;48.880;-0.862;2023-05-07T13:36:14;1.48;;;0.90;;
72358;SDS011;60317;48.880;-0.862;2023-05-07T13:38:40;0.75;;;0.50;;
72358;SDS011;60317;48.880;-0.862;2023-05-07T13:41:07;0.50;;;0.50;;
72358;SDS011;60317;48.880;-0.862;2023-05-07T13:43:33;1.77;;;0.80;;
72358;SDS011;60317;48.880;-0.862;2023-05-07T13:46:00;1.27;;;0.85;;
72358;SDS011;60317;48.880;-0.862;2023-05-07T13:48:26;1.42;;;0.70;;
72358;SDS011;60317;48.880;-0.862;2023-05-07T13:50:53;1.02;;;0.80;;
72358;SDS011;60317;48.880;-0.862;2023-05-07T13:53:21;1.52;;;0.90;;
72358;SDS011;60317;48.880;-0.862;2023-05-07T13:55:47;1.20;;;0.80;;
72358;SDS011;60317;48.880;-0.862;2023-05-07T13:58:14;1.33;;;0.60;;
72358;SDS011;60317;48.880;-0.862;2023-05-07T14:00:40;1.17;;;0.90;;
72358;SDS011;60317;48.880;-0.862;2023-05-07T14:03:07;0.95;;;0.82;;
72358;SDS011;60317;48.880;-0.862;2023-05-07T14:05:33;1.70;;;0.90;;
72358;SDS011;60317;48.880;-0.862;2023-05-07T14:08:00;0.98;;;0.85;;
72358;SDS011;60317;48.880;-0.862;2023-05-07T14:10:28;1.75;;;0.80;;
72358;SDS011;60317;48.880;-0.862;2023-05-07T14:12:55;1.38;;;0.80;;
72358;SDS011;60317;48.880;-0.862;2023-05-07T14:15:21;1.70;;;0.75;;
72358;SDS011;60317;48.880;-0.862;2023-05-07T14:17:48;1.42;;;0.85;;
72358;SDS011;60317;48.880;-0.862;2023-05-07T14:20:14;2.10;;;0.80;;
72358;SDS011;60317;48.880;-0.862;2023-05-07T14:22:41;1.58;;;0.90;;
72358;SDS011;60317;48.880;-0.862;2023-05-07T14:25:08;1.02;;;0.90;;
72358;SDS011;60317;48.880;-0.862;2023-05-07T14:27:36;1.15;;;0.70;;
72358;SDS011;60317;48.880;-0.862;2023-05-07T14:30:03;1.98;;;0.88;;
72358;SDS011;60317;48.880;-0.862;2023-05-07T14:32:29;1.60;;;0.80;;
72358;SDS011;60317;48.880;-0.862;2023-05-07T14:34:56;1.30;;;0.80;;
72358;SDS011;60317;48.880;-0.862;2023-05-07T14:37:22;2.95;;;0.80;;
72358;SDS011;60317;48.880;-0.862;2023-05-07T14:39:49;1.73;;;1.13;;
72358;SDS011;60317;48.880;-0.862;2023-05-07T14:42:16;1.88;;;0.98;;
72358;SDS011;60317;48.880;-0.862;2023-05-07T14:44:44;2.72;;;1.13;;
72358;SDS011;60317;48.880;-0.862;2023-05-07T14:47:11;1.23;;;0.90;;